createdAt,value
2024-02-21T00:00:18.421Z,102009.16
2024-02-21T00:02:45.040Z,102002.59
2024-02-21T00:05:11.757Z,102005.72
2024-02-21T00:07:38.450Z,102013.00
2024-02-21T00:10:05.457Z,102007.03
2024-02-21T00:12:32.014Z,102016.13
2024-02-21T00:14:58.616Z,102010.88
2024-02-21T00:17:27.384Z,102003.03
2024-02-21T00:19:54.228Z,101999.59
2024-02-21T00:22:21.064Z,101990.78
2024-02-21T00:24:47.754Z,101980.22
2024-02-21T00:27:14.330Z,101981.19
2024-02-21T00:29:40.997Z,101986.66
2024-02-21T00:32:07.582Z,101980.38
2024-02-21T00:34:34.797Z,101969.81
2024-02-21T00:37:01.533Z,101953.19
2024-02-21T00:39:28.085Z,101946.25
2024-02-21T00:41:54.868Z,101942.97
2024-02-21T00:44:21.526Z,101932.44
2024-02-21T00:46:48.400Z,101935.22
2024-02-21T00:49:15.147Z,101936.22
2024-02-21T00:51:41.767Z,101943.22
2024-02-21T00:54:08.569Z,101929.78
2024-02-21T00:56:35.187Z,101927.13
2024-02-21T00:59:01.934Z,101933.31
2024-02-21T01:01:28.738Z,101941.31
2024-02-21T01:03:55.525Z,101931.50
2024-02-21T01:06:22.420Z,101929.66
2024-02-21T01:08:49.276Z,101935.97
2024-02-21T01:11:19.157Z,101924.31
2024-02-21T01:13:45.962Z,101934.97
2024-02-21T01:16:12.684Z,101928.84
2024-02-21T01:18:40.864Z,101929.78
2024-02-21T01:21:08.834Z,101931.59
2024-02-21T01:23:36.852Z,101931.72
2024-02-21T01:26:04.677Z,101933.63
2024-02-21T01:28:31.949Z,101933.88
2024-02-21T01:30:58.769Z,101940.28
2024-02-21T01:33:25.435Z,101930.00
2024-02-21T01:35:52.360Z,101925.72
2024-02-21T01:38:19.208Z,101921.38
2024-02-21T01:40:46.075Z,101912.63
2024-02-21T01:43:18.976Z,101920.75
2024-02-21T01:45:49.868Z,101911.06
2024-02-21T01:48:18.577Z,101917.25
2024-02-21T01:50:46.900Z,101916.28
2024-02-21T01:53:21.366Z,101918.81
2024-02-21T01:55:49.124Z,101917.97
2024-02-21T01:58:16.889Z,101910.84
2024-02-21T02:00:44.860Z,101910.72
2024-02-21T02:03:17.963Z,101911.47
2024-02-21T02:05:49.106Z,101904.19
2024-02-21T02:08:16.892Z,101894.53
2024-02-21T02:10:44.796Z,101894.53
2024-02-21T02:13:11.721Z,101893.53
2024-02-21T02:15:44.497Z,101892.72
2024-02-21T02:18:12.278Z,101895.38
2024-02-21T02:20:39.483Z,101880.22
2024-02-21T02:23:12.045Z,101889.91
2024-02-21T02:25:39.975Z,101896.94
2024-02-21T02:28:10.126Z,101896.19
2024-02-21T02:30:37.471Z,101897.91
2024-02-21T02:33:05.066Z,101887.25
2024-02-21T02:35:32.346Z,101882.88
2024-02-21T02:37:59.633Z,101866.91
2024-02-21T02:40:26.407Z,101877.44
2024-02-21T02:42:56.171Z,101871.28
2024-02-21T02:45:27.808Z,101863.28
2024-02-21T02:48:01.002Z,101862.44
2024-02-21T02:50:28.683Z,101865.00
2024-02-21T02:52:56.426Z,101855.28
2024-02-21T02:55:23.564Z,101847.31
2024-02-21T02:57:50.397Z,101849.09
2024-02-21T03:00:17.311Z,101844.78
2024-02-21T03:02:47.643Z,101842.94
2024-02-21T03:05:19.928Z,101835.69
2024-02-21T03:07:47.690Z,101850.59
2024-02-21T03:10:15.132Z,101837.25
2024-02-21T03:12:42.009Z,101843.44
2024-02-21T03:15:09.136Z,101849.50
2024-02-21T03:17:36.349Z,101850.34
2024-02-21T03:20:07.188Z,101842.34
2024-02-21T03:22:34.277Z,101845.72
2024-02-21T03:25:01.345Z,101850.09
2024-02-21T03:27:28.005Z,101857.16
2024-02-21T03:29:54.733Z,101837.66
2024-02-21T03:32:21.383Z,101844.66
2024-02-21T03:34:48.050Z,101845.50
2024-02-21T03:37:15.282Z,101838.38
2024-02-21T03:39:42.487Z,101837.50
2024-02-21T03:42:09.228Z,101845.50
2024-02-21T03:44:36.005Z,101845.63
2024-02-21T03:47:03.025Z,101841.41
2024-02-21T03:49:30.093Z,101848.53
2024-02-21T03:51:57.419Z,101837.97
2024-02-21T03:54:24.274Z,101836.41
2024-02-21T03:56:51.028Z,101829.38
2024-02-21T03:59:17.700Z,101825.03
2024-02-21T04:01:44.491Z,101818.97
2024-02-21T04:04:12.067Z,101824.28
2024-02-21T04:06:48.333Z,101824.28
2024-02-21T04:09:14.982Z,101811.81
2024-02-21T04:11:41.614Z,101815.34
2024-02-21T04:14:08.421Z,101818.97
2024-02-21T04:16:36.040Z,101817.16
2024-02-21T04:19:03.368Z,101818.00
2024-02-21T04:21:30.272Z,101809.16
2024-02-21T04:23:56.978Z,101811.81
2024-02-21T04:26:23.541Z,101821.53
2024-02-21T04:28:50.166Z,101819.81
2024-02-21T04:31:17.018Z,101811.81
2024-02-21T04:33:43.655Z,101810.97
2024-02-21T04:36:10.669Z,101813.63
2024-02-21T04:38:37.297Z,101802.97
2024-02-21T04:41:03.976Z,101795.00
2024-02-21T04:43:30.687Z,101792.31
2024-02-21T04:45:57.335Z,101788.84
2024-02-21T04:48:23.914Z,101790.50
2024-02-21T04:50:50.850Z,101788.84
2024-02-21T04:53:17.422Z,101789.78
2024-02-21T04:55:44.224Z,101786.28
2024-02-21T04:58:10.882Z,101784.47
2024-02-21T05:00:37.485Z,101786.19
2024-02-21T05:03:04.431Z,101782.66
2024-02-21T05:05:31.266Z,101784.34
2024-02-21T05:07:58.060Z,101779.88
2024-02-21T05:10:24.800Z,101775.53
2024-02-21T05:12:51.419Z,101779.00
2024-02-21T05:15:18.090Z,101776.34
2024-02-21T05:17:45.627Z,101773.69
2024-02-21T05:20:12.517Z,101775.53
2024-02-21T05:22:39.300Z,101766.69
2024-02-21T05:25:06.389Z,101767.53
2024-02-21T05:27:33.005Z,101772.97
2024-02-21T05:29:59.572Z,101768.50
2024-02-21T05:32:27.464Z,101772.00
2024-02-21T05:34:54.245Z,101763.16
2024-02-21T05:37:20.996Z,101764.97
2024-02-21T05:39:47.708Z,101758.56
2024-02-21T05:42:14.306Z,101761.22
2024-02-21T05:44:40.860Z,101748.88
2024-02-21T05:47:11.252Z,101752.63
2024-02-21T05:49:38.304Z,101739.44
2024-02-21T05:52:07.133Z,101736.88
2024-02-21T05:54:33.978Z,101741.38
2024-02-21T05:57:00.770Z,101733.50
2024-02-21T05:59:27.476Z,101730.97
2024-02-21T06:01:59.229Z,101729.25
2024-02-21T06:04:26.307Z,101724.78
2024-02-21T06:06:53.045Z,101727.56
2024-02-21T06:09:19.662Z,101724.91
2024-02-21T06:11:47.660Z,101722.22
2024-02-21T06:14:14.537Z,101713.53
2024-02-21T06:16:41.362Z,101710.88
2024-02-21T06:19:10.344Z,101713.53
2024-02-21T06:21:38.129Z,101708.22
2024-02-21T06:24:05.428Z,101696.69
2024-02-21T06:26:32.043Z,101695.03
2024-02-21T06:29:00.937Z,101699.38
2024-02-21T06:31:29.110Z,101702.16
2024-02-21T06:33:56.251Z,101711.00
2024-02-21T06:36:23.248Z,101707.50
2024-02-21T06:38:50.836Z,101705.53
2024-02-21T06:41:19.945Z,101710.00
2024-02-21T06:43:47.643Z,101710.00
2024-02-21T06:46:25.811Z,101699.50
2024-02-21T06:48:52.874Z,101704.81
2024-02-21T06:51:19.694Z,101710.00
2024-02-21T06:53:46.331Z,101708.22
2024-02-21T06:56:13.076Z,101706.41
2024-02-21T06:58:39.774Z,101701.06
2024-02-21T07:01:06.637Z,101698.28
2024-02-21T07:03:33.384Z,101698.28
2024-02-21T07:06:00.300Z,101694.66
2024-02-21T07:08:27.580Z,101707.13
2024-02-21T07:10:54.417Z,101699.13
2024-02-21T07:13:21.707Z,101699.88
2024-02-21T07:15:49.613Z,101695.97
2024-02-21T07:18:16.343Z,101689.56
2024-02-21T07:20:42.972Z,101688.47
2024-02-21T07:23:09.859Z,101680.34
2024-02-21T07:28:04.109Z,101682.63
2024-02-21T07:30:30.739Z,101677.22
2024-02-21T07:32:57.384Z,101667.16
2024-02-21T07:35:24.090Z,101657.47
2024-02-21T07:37:50.744Z,101664.50
2024-02-21T07:40:18.317Z,101657.34
2024-02-21T07:42:48.686Z,101653.69
2024-02-21T07:45:19.620Z,101648.25
2024-02-21T07:47:46.580Z,101648.88
2024-02-21T07:50:13.365Z,101640.75
2024-02-21T07:52:40.137Z,101643.19
2024-02-21T07:55:07.028Z,101644.75
2024-02-21T07:57:33.664Z,101647.31
2024-02-21T08:00:00.337Z,101652.50
2024-02-21T08:02:27.017Z,101643.53
2024-02-21T08:04:53.655Z,101642.69
2024-02-21T08:07:20.346Z,101634.56
2024-02-21T08:09:47.008Z,101641.72
2024-02-21T08:12:13.791Z,101638.22
2024-02-21T08:14:40.383Z,101633.72
2024-02-21T08:17:07.324Z,101633.59
2024-02-21T08:19:34.321Z,101632.63
2024-02-21T08:22:01.518Z,101630.81
2024-02-21T08:24:28.204Z,101627.16
2024-02-21T08:26:54.829Z,101619.16
2024-02-21T08:29:21.519Z,101615.53
2024-02-21T08:31:48.153Z,101622.56
2024-02-21T08:34:15.245Z,101613.59
2024-02-21T08:36:42.198Z,101611.78
2024-02-21T08:39:10.852Z,101603.91
2024-02-21T08:41:48.391Z,101603.19
2024-02-21T08:44:27.632Z,101598.00
2024-02-21T08:46:54.667Z,101602.31
2024-02-21T08:49:21.669Z,101592.66
2024-02-21T08:51:48.737Z,101586.47
2024-02-21T08:54:15.528Z,101589.16
2024-02-21T08:56:42.455Z,101573.00
2024-02-21T08:59:09.269Z,101566.88
2024-02-21T09:01:36.557Z,101559.56
2024-02-21T09:04:04.107Z,101547.09
2024-02-21T09:06:31.408Z,101550.38
2024-02-21T09:08:59.355Z,101550.22
2024-02-21T09:11:26.357Z,101542.13
2024-02-21T09:13:53.148Z,101549.72
2024-02-21T09:16:19.910Z,101555.03
2024-02-21T09:18:47.819Z,101552.22
2024-02-21T09:21:14.487Z,101554.78
2024-02-21T09:23:41.071Z,101557.19
2024-02-21T09:26:07.855Z,101556.22
2024-02-21T09:28:35.831Z,101561.41
2024-02-21T09:31:03.154Z,101549.91
2024-02-21T09:33:32.568Z,101550.75
2024-02-21T09:36:00.867Z,101541.19
2024-02-21T09:38:27.531Z,101545.69
2024-02-21T09:41:05.503Z,101539.50
2024-02-21T09:43:33.763Z,101538.66
2024-02-21T09:46:01.780Z,101533.47
2024-02-21T09:48:43.723Z,101523.50
2024-02-21T09:51:11.665Z,101518.06
2024-02-21T09:53:40.032Z,101528.47
2024-02-21T09:56:11.385Z,101517.41
2024-02-21T09:58:39.497Z,101520.81
2024-02-21T10:01:17.021Z,101500.75
2024-02-21T10:03:52.442Z,101492.34
2024-02-21T10:06:19.250Z,101485.06
2024-02-21T10:08:53.652Z,101492.94
2024-02-21T10:11:25.638Z,101483.13
2024-02-21T10:13:53.013Z,101481.16
2024-02-21T10:16:19.767Z,101483.56
2024-02-21T10:18:46.436Z,101480.53
2024-02-21T10:21:13.162Z,101470.81
2024-02-21T10:23:44.572Z,101453.84
2024-02-21T10:26:11.545Z,101450.19
2024-02-21T10:28:43.466Z,101451.88
2024-02-21T10:31:11.276Z,101426.06
2024-02-21T10:33:39.381Z,101441.34
2024-02-21T10:36:10.906Z,101430.81
2024-02-21T10:38:39.226Z,101442.44
2024-02-21T10:41:06.938Z,101430.94
2024-02-21T10:43:44.787Z,101429.84
2024-02-21T10:46:12.083Z,101425.06
2024-02-21T10:48:46.448Z,101421.91
2024-02-21T10:51:15.999Z,101416.47
2024-02-21T10:54:24.140Z,101405.84
2024-02-21T10:56:52.630Z,101411.63
2024-02-21T10:59:19.699Z,101409.34
2024-02-21T11:01:46.602Z,101402.34
2024-02-21T11:04:13.952Z,101393.75
2024-02-21T11:06:42.755Z,101393.06
2024-02-21T11:09:11.905Z,101392.09
2024-02-21T11:11:41.464Z,101390.41
2024-02-21T11:14:13.152Z,101384.94
2024-02-21T11:16:41.706Z,101376.44
2024-02-21T11:19:12.201Z,101374.22
2024-02-21T11:21:39.562Z,101368.75
2024-02-21T11:24:06.553Z,101355.69
2024-02-21T11:26:33.697Z,101357.78
2024-02-21T11:29:05.291Z,101353.88
2024-02-21T11:31:42.764Z,101342.22
2024-02-21T11:34:11.495Z,101335.28
2024-02-21T11:36:51.229Z,101328.00
2024-02-21T11:39:23.150Z,101321.53
2024-02-21T11:42:06.567Z,101313.13
2024-02-21T11:44:33.523Z,101306.94
2024-02-21T11:47:00.359Z,101295.41
2024-02-21T11:49:30.937Z,101290.22
2024-02-21T11:52:06.983Z,101291.75
2024-02-21T11:54:34.502Z,101275.59
2024-02-21T11:57:02.382Z,101262.25
2024-02-21T11:59:32.903Z,101262.81
2024-02-21T12:02:01.082Z,101249.63
2024-02-21T12:04:28.485Z,101236.25
2024-02-21T12:06:55.665Z,101239.63
2024-02-21T12:09:24.412Z,101229.09
2024-02-21T12:12:06.125Z,101220.94
2024-02-21T12:14:35.807Z,101209.41
2024-02-21T12:17:07.345Z,101206.47
2024-02-21T12:19:34.689Z,101206.31
2024-02-21T12:22:02.555Z,101207.16
2024-02-21T12:24:30.429Z,101191.00
2024-02-21T12:26:58.383Z,101180.88
2024-02-21T12:29:25.960Z,101177.16
2024-02-21T12:31:53.553Z,101160.28
2024-02-21T12:34:27.729Z,101169.66
2024-02-21T12:37:02.662Z,101178.22
2024-02-21T12:39:29.909Z,101186.94
2024-02-21T12:41:59.245Z,101184.72
2024-02-21T12:44:25.953Z,101177.16
2024-02-21T12:46:55.202Z,101162.56
2024-02-21T12:49:22.243Z,101154.84
2024-02-21T12:51:49.432Z,101153.44
2024-02-21T12:54:16.118Z,101132.34
2024-02-21T12:56:42.878Z,101124.63
2024-02-21T12:59:12.712Z,101107.81
2024-02-21T13:01:39.747Z,101100.78
2024-02-21T13:04:07.005Z,101100.91
2024-02-21T13:06:34.074Z,101088.69
2024-02-21T13:09:04.727Z,101086.19
2024-02-21T13:11:33.054Z,101067.78
2024-02-21T13:14:00.278Z,101056.97
2024-02-21T13:16:30.349Z,101042.88
2024-02-21T13:18:57.122Z,101036.06
2024-02-21T13:21:23.943Z,101012.16
2024-02-21T13:23:50.858Z,101006.31
2024-02-21T13:26:17.726Z,100993.06
2024-02-21T13:28:46.402Z,100987.41
2024-02-21T13:31:13.500Z,100967.50
2024-02-21T13:33:40.277Z,100958.09
2024-02-21T13:36:07.290Z,100937.13
2024-02-21T13:38:33.926Z,100937.13
2024-02-21T13:41:01.854Z,100932.06
2024-02-21T13:43:29.166Z,100922.06
2024-02-21T13:46:00.468Z,100908.31
2024-02-21T13:48:28.457Z,100927.47
2024-02-21T13:50:55.399Z,100925.25
2024-02-21T13:53:23.803Z,100919.84
2024-02-21T13:55:51.304Z,100917.47
2024-02-21T13:58:18.655Z,100920.44
2024-02-21T14:00:46.019Z,100924.41
2024-02-21T14:03:13.051Z,100911.53
2024-02-21T14:05:43.418Z,100899.31
2024-02-21T14:08:10.576Z,100893.81
2024-02-21T14:10:38.660Z,100897.31
2024-02-21T14:13:05.522Z,100872.06
2024-02-21T14:15:32.532Z,100859.19
2024-02-21T14:17:59.376Z,100844.16
2024-02-21T14:20:26.150Z,100837.31
2024-02-21T14:22:52.843Z,100837.75
2024-02-21T14:25:19.714Z,100832.88
2024-02-21T14:27:46.490Z,100827.16
2024-02-21T14:30:13.588Z,100821.13
2024-02-21T14:32:45.379Z,100822.44
2024-02-21T14:35:12.395Z,100806.75
2024-02-21T14:37:39.189Z,100804.50
2024-02-21T14:40:06.872Z,100789.78
2024-02-21T14:42:34.083Z,100795.72
2024-02-21T14:45:05.198Z,100781.03
2024-02-21T14:47:33.313Z,100770.00
2024-02-21T14:50:00.548Z,100771.13
2024-02-21T14:52:28.864Z,100765.41
2024-02-21T14:54:55.873Z,100765.72
2024-02-21T14:57:23.013Z,100755.50
2024-02-21T14:59:51.262Z,100755.81
2024-02-21T15:02:18.562Z,100757.09
2024-02-21T15:04:45.442Z,100750.91
2024-02-21T15:07:12.122Z,100753.75
2024-02-21T15:09:38.706Z,100744.06
2024-02-21T15:12:07.536Z,100746.91
2024-02-21T15:14:35.527Z,100752.38
2024-02-21T15:17:02.276Z,100746.34
2024-02-21T15:19:29.183Z,100733.16
2024-02-21T15:21:56.081Z,100723.63
2024-02-21T15:24:22.761Z,100724.63
2024-02-21T15:26:49.446Z,100715.94
2024-02-21T15:29:16.178Z,100704.59
2024-02-21T15:31:47.894Z,100683.41
2024-02-21T15:34:18.951Z,100671.75
2024-02-21T15:36:46.079Z,100660.13
2024-02-21T15:39:13.471Z,100645.66
2024-02-21T15:41:40.243Z,100642.97
2024-02-21T15:44:07.209Z,100633.97
2024-02-21T15:46:37.488Z,100628.81
2024-02-21T15:49:04.945Z,100626.44
2024-02-21T15:51:31.768Z,100605.72
2024-02-21T15:53:59.743Z,100599.19
2024-02-21T15:56:27.643Z,100601.47
2024-02-21T15:58:56.492Z,100583.13
2024-02-21T16:01:24.812Z,100586.25
2024-02-21T16:03:53.009Z,100580.69
2024-02-21T16:06:19.671Z,100569.50
2024-02-21T16:08:48.245Z,100555.66
2024-02-21T16:11:18.967Z,100553.13
2024-02-21T16:13:49.462Z,100543.09
2024-02-21T16:16:16.606Z,100527.41
2024-02-21T16:18:43.728Z,100516.06
2024-02-21T16:21:10.303Z,100503.91
2024-02-21T16:23:36.943Z,100513.84
2024-02-21T16:26:03.693Z,100512.31
2024-02-21T16:28:30.846Z,100495.13
2024-02-21T16:30:59.281Z,100488.94
2024-02-21T16:33:26.489Z,100484.75
2024-02-21T16:35:53.798Z,100477.91
2024-02-21T16:38:20.855Z,100457.59
2024-02-21T16:40:52.322Z,100448.09
2024-02-21T16:43:19.049Z,100414.50
2024-02-21T16:45:45.796Z,100444.09
2024-02-21T16:48:12.569Z,100435.56
2024-02-21T16:50:48.837Z,100423.41
2024-02-21T16:53:21.932Z,100426.19
2024-02-21T16:55:49.836Z,100414.88
2024-02-21T16:58:17.134Z,100411.25
2024-02-21T17:00:43.762Z,100420.19
2024-02-21T17:03:10.447Z,100412.34
2024-02-21T17:05:40.267Z,100407.88
2024-02-21T17:08:10.607Z,100407.88
2024-02-21T17:10:37.811Z,100400.88
2024-02-21T17:13:06.300Z,100395.72
2024-02-21T17:15:33.011Z,100395.72
2024-02-21T17:18:00.190Z,100386.88
2024-02-21T17:20:27.163Z,100383.38
2024-02-21T17:22:53.960Z,100383.38
2024-02-21T17:25:20.620Z,100384.38
2024-02-21T17:27:47.296Z,100390.56
2024-02-21T17:30:14.367Z,100400.50
2024-02-21T17:32:41.080Z,100383.69
2024-02-21T17:35:08.021Z,100384.84
2024-02-21T17:37:35.203Z,100378.84
2024-02-21T17:40:05.577Z,100368.31
2024-02-21T17:42:32.295Z,100350.72
2024-02-21T17:44:58.907Z,100353.69
2024-02-21T17:47:25.496Z,100349.31
2024-02-21T17:49:52.147Z,100338.84
2024-02-21T17:52:18.748Z,100335.34
2024-02-21T17:54:47.720Z,100331.19
2024-02-21T17:57:15.142Z,100320.53
2024-02-21T17:59:42.957Z,100321.69
2024-02-21T18:02:10.467Z,100314.50
2024-02-21T18:04:37.277Z,100319.03
2024-02-21T18:07:04.443Z,100304.03
2024-02-21T18:09:32.070Z,100304.16
2024-02-21T18:11:59.848Z,100297.19
2024-02-21T18:14:26.508Z,100299.03
2024-02-21T18:16:53.286Z,100273.25
2024-02-21T18:19:20.779Z,100278.56
2024-02-21T18:21:47.640Z,100277.06
2024-02-21T18:24:14.452Z,100280.69
2024-02-21T18:26:41.645Z,100263.91
2024-02-21T18:29:10.351Z,100254.09
2024-02-21T18:31:39.013Z,100248.09
2024-02-21T18:34:05.840Z,100234.94
2024-02-21T18:36:32.576Z,100235.63
2024-02-21T18:38:59.215Z,100236.47
2024-02-21T18:41:27.760Z,100225.81
2024-02-21T18:43:55.495Z,100226.66
2024-02-21T18:46:22.422Z,100232.66
2024-02-21T18:48:49.043Z,100236.16
2024-02-21T18:51:17.283Z,100217.38
2024-02-21T18:53:44.056Z,100216.53
2024-02-21T18:56:11.841Z,100204.91
2024-02-21T18:58:38.493Z,100204.75
2024-02-21T19:01:05.269Z,100191.44
2024-02-21T19:03:31.906Z,100190.78
2024-02-21T19:05:58.674Z,100181.97
2024-02-21T19:08:25.376Z,100174.94
2024-02-21T19:10:52.068Z,100170.66
2024-02-21T19:13:21.389Z,100163.47
2024-02-21T19:15:48.160Z,100158.16
2024-02-21T19:18:14.872Z,100148.53
2024-02-21T19:20:41.607Z,100152.03
2024-02-21T19:23:09.301Z,100155.50
2024-02-21T19:25:36.237Z,100143.03
2024-02-21T19:28:02.898Z,100140.53
2024-02-21T19:30:29.730Z,100135.22
2024-02-21T19:32:56.461Z,100140.38
2024-02-21T19:35:23.521Z,100121.06
2024-02-21T19:37:50.509Z,100123.88
2024-02-21T19:40:17.664Z,100123.06
2024-02-21T19:42:45.264Z,100123.88
2024-02-21T19:45:12.102Z,100110.75
2024-02-21T19:47:38.836Z,100109.06
2024-02-21T19:50:06.135Z,100099.44
2024-02-21T19:52:32.867Z,100096.78
2024-02-21T19:55:00.046Z,100083.47
2024-02-21T19:57:26.886Z,100079.81
2024-02-21T19:59:54.548Z,100072.66
2024-02-21T20:02:21.168Z,100062.88
2024-02-21T20:04:48.562Z,100061.06
2024-02-21T20:07:15.275Z,100052.38
2024-02-21T20:09:42.732Z,100057.56
2024-02-21T20:12:09.584Z,100053.06
2024-02-21T20:14:36.269Z,100042.25
2024-02-21T20:17:03.039Z,100037.75
2024-02-21T20:19:29.725Z,100040.44
2024-02-21T20:21:56.396Z,100027.31
2024-02-21T20:24:32.807Z,100028.94
2024-02-21T20:27:06.881Z,100019.97
2024-02-21T20:29:33.593Z,100014.66
2024-02-21T20:32:00.801Z,100013.00
2024-02-21T20:34:31.788Z,100012.16
2024-02-21T20:36:58.895Z,100002.53
2024-02-21T20:39:26.180Z,99999.03
2024-02-21T20:41:52.866Z,99998.03
2024-02-21T20:44:19.586Z,99999.88
2024-02-21T20:46:46.250Z,99992.72
2024-02-21T20:49:12.921Z,99994.53
2024-02-21T20:51:39.639Z,99990.06
2024-02-21T20:54:06.251Z,99973.25
2024-02-21T20:56:32.868Z,99979.41
2024-02-21T20:58:59.464Z,99968.78
2024-02-21T21:01:26.122Z,99956.28
2024-02-21T21:03:52.859Z,99959.78
2024-02-21T21:06:20.009Z,99951.81
2024-02-21T21:08:46.912Z,99941.00
2024-02-21T21:11:13.732Z,99940.19
2024-02-21T21:13:40.480Z,99944.50
2024-02-21T21:16:07.696Z,99932.00
2024-02-21T21:18:34.523Z,99930.19
2024-02-21T21:21:02.265Z,99938.88
2024-02-21T21:23:29.255Z,99933.53
2024-02-21T21:25:56.345Z,99931.69
2024-02-21T21:28:23.224Z,99921.88
2024-02-21T21:30:50.959Z,99925.38
2024-02-21T21:33:19.139Z,99930.72
2024-02-21T21:35:45.975Z,99928.72
2024-02-21T21:38:14.575Z,99911.75
2024-02-21T21:40:44.235Z,99923.06
2024-02-21T21:43:11.042Z,99917.72
2024-02-21T21:45:37.639Z,99914.09
2024-02-21T21:48:05.707Z,99909.44
2024-02-21T21:50:32.658Z,99898.63
2024-02-21T21:52:59.425Z,99886.97
2024-02-21T21:55:26.246Z,99882.50
2024-02-21T21:57:53.247Z,99882.50
2024-02-21T22:00:20.981Z,99885.00
2024-02-21T22:02:48.958Z,99878.66
2024-02-21T22:05:16.630Z,99870.53
2024-02-21T22:07:44.245Z,99863.38
2024-02-21T22:10:11.145Z,99864.03
2024-02-21T22:12:37.798Z,99853.56
2024-02-21T22:15:06.415Z,99845.41
2024-02-21T22:17:34.105Z,99833.09
2024-02-21T22:20:01.100Z,99829.28
2024-02-21T22:22:28.027Z,99832.75
2024-02-21T22:24:54.837Z,99835.25
2024-02-21T22:27:21.542Z,99834.44
2024-02-21T22:29:48.327Z,99821.78
2024-02-21T22:32:15.018Z,99827.09
2024-02-21T22:34:41.779Z,99829.75
2024-02-21T22:37:08.589Z,99823.44
2024-02-21T22:39:35.389Z,99827.59
2024-02-21T22:42:02.610Z,99827.28
2024-02-21T22:44:29.457Z,99821.94
2024-02-21T22:46:57.768Z,99813.13
2024-02-21T22:49:25.137Z,99817.47
2024-02-21T22:51:52.084Z,99810.31
2024-02-21T22:54:19.896Z,99803.97
2024-02-21T22:56:46.813Z,99803.97
2024-02-21T22:59:13.796Z,99797.66
2024-02-21T23:01:40.608Z,99794.00
2024-02-21T23:04:07.654Z,99796.47
2024-02-21T23:06:34.700Z,99789.34
2024-02-21T23:09:03.813Z,99786.50
2024-02-21T23:11:31.292Z,99792.66
2024-02-21T23:13:57.980Z,99788.16
2024-02-21T23:16:24.580Z,99782.84
2024-02-21T23:18:52.667Z,99784.50
2024-02-21T23:21:19.366Z,99788.84
2024-02-21T23:23:45.997Z,99783.34
2024-02-21T23:26:12.676Z,99783.34
2024-02-21T23:28:44.139Z,99775.19
2024-02-21T23:31:14.166Z,99779.69
2024-02-21T23:33:40.787Z,99780.34
2024-02-21T23:36:08.075Z,99784.66
2024-02-21T23:38:34.786Z,99786.31
2024-02-21T23:41:01.492Z,99778.16
2024-02-21T23:43:31.261Z,99774.50
2024-02-21T23:45:57.929Z,99764.66
2024-02-21T23:48:24.520Z,99760.19
2024-02-21T23:50:51.151Z,99760.03
2024-02-21T23:53:17.833Z,99756.34
2024-02-21T23:55:44.612Z,99759.69
2024-02-21T23:58:11.228Z,99761.19
